Time;durP1;ratioP1;P1;durP2;ratioP2;P2;SDS_P1;SDS_P2;PMS_P1;PMS_P2;Temp;Humidity;BMP_temperature;BMP_pressure;BME280_temperature;BME280_humidity;BME280_pressure;Samples;Min_cycle;Max_cycle;Signal;HPM_P1;HPM_P2
2024/01/05 00:01:50;;;;;;;;;;;19.20;42.50;;;;;;5077484;28;19923;-56
2024/01/05 00:04:16;;;;;;;;;;;19.20;42.50;;;;;;5080362;28;20036;-55
2024/01/05 00:06:43;;;;;;;;;;;19.20;42.50;;;;;;5090084;28;20319;-56
2024/01/05 00:09:10;;;;;;;;;;;19.20;42.50;;;;;;5087251;28;19920;-53
2024/01/05 00:11:37;;;;;;;;;;;19.20;42.50;;;;;;5081043;28;19977;-57
2024/01/05 00:14:05;;;;;;;;;;;19.20;42.50;;;;;;5080866;28;19920;-51
2024/01/05 00:16:32;;;;;;;;;;;19.20;42.50;;;;;;5089237;28;19956;-58
2024/01/05 00:18:59;;;;;;;;;;;19.20;42.50;;;;;;5090462;28;19924;-52
2024/01/05 00:21:26;;;;;;;;;;;19.20;42.50;;;;;;5081602;28;19924;-51
2024/01/05 00:23:53;;;;;;;;;;;19.20;42.50;;;;;;5090123;28;20361;-50
2024/01/05 00:26:20;;;;;;;;;;;19.20;42.50;;;;;;5071663;28;19920;-57
2024/01/05 00:28:47;;;;;;;;;;;19.20;42.50;;;;;;5070780;28;19919;-50
2024/01/05 00:31:15;;;;;;;;;;;19.20;42.50;;;;;;5066567;28;19936;-58
2024/01/05 00:33:42;;;;;;;;;;;19.20;42.50;;;;;;5096585;28;19924;-54
2024/01/05 00:36:09;;;;;;;;;;;19.20;42.50;;;;;;5079131;28;20372;-56
2024/01/05 00:38:36;;;;;;;;;;;19.20;42.50;;;;;;5074730;28;19959;-54
2024/01/05 00:41:03;;;;;;;;;;;19.20;42.50;;;;;;5080764;28;19920;-53
2024/01/05 00:43:30;;;;;;;;;;;19.20;42.60;;;;;;5073273;28;19969;-54
2024/01/05 00:45:57;;;;;;;;;;;19.20;42.60;;;;;;5083764;28;19919;-53
2024/01/05 00:48:26;;;;;;;;;;;19.20;42.60;;;;;;5076065;28;19924;-54
2024/01/05 00:50:52;;;;;;;;;;;19.20;42.60;;;;;;5076981;28;19928;-57
2024/01/05 00:53:19;;;;;;;;;;;19.20;42.60;;;;;;5084844;28;19927;-53
2024/01/05 00:55:46;;;;;;;;;;;19.20;42.60;;;;;;5084224;28;19920;-56
2024/01/05 00:58:13;;;;;;;;;;;19.20;42.60;;;;;;5083922;28;19920;-56
2024/01/05 01:00:40;;;;;;;;;;;19.20;42.60;;;;;;5073394;28;19993;-54
2024/01/05 01:03:07;;;;;;;;;;;19.20;42.60;;;;;;5075537;28;19973;-52
2024/01/05 01:05:35;;;;;;;;;;;19.20;42.50;;;;;;5070481;28;19920;-52
2024/01/05 01:08:02;;;;;;;;;;;19.20;42.60;;;;;;5088852;28;19928;-57
2024/01/05 01:10:28;;;;;;;;;;;19.20;42.60;;;;;;5072447;28;19989;-54
2024/01/05 01:12:55;;;;;;;;;;;19.20;42.50;;;;;;5093082;28;19981;-58
2024/01/05 01:15:22;;;;;;;;;;;19.20;42.50;;;;;;5101059;28;19928;-53
2024/01/05 01:17:49;;;;;;;;;;;19.20;42.50;;;;;;5042933;28;19971;-57
2024/01/05 01:20:17;;;;;;;;;;;19.20;42.50;;;;;;5088835;28;19973;-54
2024/01/05 01:22:46;;;;;;;;;;;19.20;42.50;;;;;;5082579;28;19921;-56
2024/01/05 01:25:12;;;;;;;;;;;19.20;42.50;;;;;;5081477;28;19928;-53
2024/01/05 01:27:39;;;;;;;;;;;19.20;42.50;;;;;;5083512;28;19955;-54
2024/01/05 01:30:08;;;;;;;;;;;19.10;42.40;;;;;;5077327;28;19924;-54
2024/01/05 01:32:36;;;;;;;;;;;19.20;42.50;;;;;;5074763;28;19934;-53
2024/01/05 01:35:03;;;;;;;;;;;19.20;42.50;;;;;;5076731;28;19965;-53
2024/01/05 01:37:30;;;;;;;;;;;19.20;42.50;;;;;;5075817;28;19924;-52
2024/01/05 01:39:58;;;;;;;;;;;19.20;42.50;;;;;;5071993;28;19926;-52
2024/01/05 01:42:25;;;;;;;;;;;19.20;42.50;;;;;;5085829;28;19920;-49
2024/01/05 01:44:52;;;;;;;;;;;19.20;42.50;;;;;;5099553;28;19978;-51
2024/01/05 01:47:18;;;;;;;;;;;19.10;42.40;;;;;;5082820;28;20016;-47
2024/01/05 01:49:45;;;;;;;;;;;19.10;42.30;;;;;;5081809;28;19989;-52
2024/01/05 01:52:12;;;;;;;;;;;19.10;42.40;;;;;;5068577;28;19931;-49
2024/01/05 01:54:42;;;;;;;;;;;19.20;42.40;;;;;;5073657;28;19920;-50
2024/01/05 01:57:11;;;;;;;;;;;19.10;42.30;;;;;;5072328;28;19939;-48
2024/01/05 01:59:37;;;;;;;;;;;19.10;42.30;;;;;;5076293;28;19920;-47
2024/01/05 02:02:04;;;;;;;;;;;19.10;42.40;;;;;;5082511;28;20339;-53
2024/01/05 02:04:30;;;;;;;;;;;19.10;42.30;;;;;;5092428;28;19974;-49
2024/01/05 02:06:59;;;;;;;;;;;19.10;42.30;;;;;;5083960;28;19920;-55
2024/01/05 02:09:26;;;;;;;;;;;19.10;42.30;;;;;;5074995;28;19977;-53
2024/01/05 02:11:53;;;;;;;;;;;19.10;42.30;;;;;;5074554;28;19988;-52
2024/01/05 02:14:21;;;;;;;;;;;19.10;42.30;;;;;;5086026;28;20186;-57
2024/01/05 02:16:48;;;;;;;;;;;19.10;42.30;;;;;;5082741;28;19920;-53
2024/01/05 02:19:15;;;;;;;;;;;19.10;42.20;;;;;;5077354;28;19920;-55
2024/01/05 02:21:43;;;;;;;;;;;19.10;42.20;;;;;;5079432;28;19920;-55
2024/01/05 02:24:11;;;;;;;;;;;19.10;42.20;;;;;;5089355;28;20276;-54
2024/01/05 02:26:38;;;;;;;;;;;19.10;42.20;;;;;;5069232;28;19941;-54
2024/01/05 02:29:05;;;;;;;;;;;19.10;42.20;;;;;;5060556;28;19959;-55
2024/01/05 02:31:33;;;;;;;;;;;19.10;42.80;;;;;;5069844;28;19931;-54
2024/01/05 02:33:59;;;;;;;;;;;19.10;42.20;;;;;;5082103;28;19949;-54
2024/01/05 02:36:26;;;;;;;;;;;19.10;42.20;;;;;;5073630;28;19993;-54
2024/01/05 02:38:53;;;;;;;;;;;19.10;42.20;;;;;;5091032;28;19928;-56
2024/01/05 02:41:21;;;;;;;;;;;19.10;42.20;;;;;;5089169;28;19954;-55
2024/01/05 02:43:48;;;;;;;;;;;19.10;42.30;;;;;;5056502;28;19935;-52
2024/01/05 02:46:17;;;;;;;;;;;19.10;42.20;;;;;;5076396;28;20418;-52
2024/01/05 02:48:44;;;;;;;;;;;19.10;42.20;;;;;;5088188;28;19924;-55
2024/01/05 02:51:11;;;;;;;;;;;19.10;42.30;;;;;;5082268;28;19930;-54
2024/01/05 02:53:38;;;;;;;;;;;19.10;42.30;;;;;;5078177;28;20003;-54
2024/01/05 02:56:05;;;;;;;;;;;19.10;42.30;;;;;;5076748;28;19929;-53
2024/01/05 02:58:33;;;;;;;;;;;19.10;42.30;;;;;;5079603;28;19943;-56
2024/01/05 03:01:00;;;;;;;;;;;19.10;42.30;;;;;;5073316;28;19920;-53
2024/01/05 03:03:27;;;;;;;;;;;19.10;42.30;;;;;;5068454;28;19926;-53
2024/01/05 03:05:54;;;;;;;;;;;19.10;42.30;;;;;;5070334;28;19973;-55
2024/01/05 03:08:21;;;;;;;;;;;19.10;42.30;;;;;;5046894;28;19931;-55
2024/01/05 03:10:48;;;;;;;;;;;19.10;42.30;;;;;;5073644;28;20354;-56
2024/01/05 03:13:14;;;;;;;;;;;19.10;42.30;;;;;;5073096;28;19920;-49
2024/01/05 03:15:42;;;;;;;;;;;19.10;42.30;;;;;;5065779;28;19924;-53
2024/01/05 03:18:09;;;;;;;;;;;19.10;42.30;;;;;;5098753;28;19985;-50
2024/01/05 03:20:36;;;;;;;;;;;19.10;42.30;;;;;;5073497;28;19946;-51
2024/01/05 03:23:03;;;;;;;;;;;19.10;42.30;;;;;;5076986;28;19920;-51
2024/01/05 03:25:30;;;;;;;;;;;19.10;42.30;;;;;;5085440;28;19924;-47
2024/01/05 03:27:57;;;;;;;;;;;19.10;42.30;;;;;;5091198;28;20361;-51
2024/01/05 03:30:24;;;;;;;;;;;19.10;42.30;;;;;;5092588;28;19984;-50
2024/01/05 03:32:52;;;;;;;;;;;19.10;42.90;;;;;;5071805;28;20001;-54
2024/01/05 03:35:19;;;;;;;;;;;19.10;42.30;;;;;;5080406;28;19920;-51
2024/01/05 03:37:46;;;;;;;;;;;19.10;42.30;;;;;;5073150;28;19926;-51
2024/01/05 03:40:13;;;;;;;;;;;19.10;42.30;;;;;;5090258;28;19920;-52
2024/01/05 03:42:39;;;;;;;;;;;19.10;42.30;;;;;;5071993;28;19945;-49
2024/01/05 03:45:07;;;;;;;;;;;19.10;42.30;;;;;;5062429;28;20461;-53
2024/01/05 03:47:34;;;;;;;;;;;19.10;42.80;;;;;;5091059;28;19920;-55
2024/01/05 03:50:02;;;;;;;;;;;19.10;42.30;;;;;;5070358;28;19966;-50
2024/01/05 03:52:29;;;;;;;;;;;19.10;42.20;;;;;;5072755;28;20063;-51
2024/01/05 03:54:56;;;;;;;;;;;19.10;42.20;;;;;;5079864;28;19963;-51
2024/01/05 03:57:23;;;;;;;;;;;19.10;42.20;;;;;;5077757;28;19935;-52
2024/01/05 03:59:50;;;;;;;;;;;19.10;42.20;;;;;;5080701;28;20023;-51
2024/01/05 04:02:17;;;;;;;;;;;19.10;42.20;;;;;;5078920;28;19932;-52
2024/01/05 04:04:43;;;;;;;;;;;19.10;42.20;;;;;;5063968;28;19986;-55
2024/01/05 04:07:12;;;;;;;;;;;19.10;42.10;;;;;;5087572;28;19931;-56
2024/01/05 04:09:39;;;;;;;;;;;19.00;42.00;;;;;;5076678;28;19987;-52
2024/01/05 04:12:06;;;;;;;;;;;19.10;42.10;;;;;;5073013;28;19991;-52
2024/01/05 04:14:33;;;;;;;;;;;19.10;42.20;;;;;;5077538;28;19920;-54
2024/01/05 04:17:00;;;;;;;;;;;19.10;42.30;;;;;;5098900;28;19924;-53
2024/01/05 04:19:29;;;;;;;;;;;19.00;42.00;;;;;;5093918;28;19920;-55
2024/01/05 04:21:56;;;;;;;;;;;19.00;42.00;;;;;;5094769;28;19920;-52
2024/01/05 04:24:24;;;;;;;;;;;19.00;42.00;;;;;;5076174;28;19952;-54
2024/01/05 04:26:51;;;;;;;;;;;19.00;42.00;;;;;;5074013;28;19946;-56
2024/01/05 04:29:17;;;;;;;;;;;19.00;41.90;;;;;;5075392;28;19946;-53
2024/01/05 04:31:44;;;;;;;;;;;19.00;42.00;;;;;;5100914;28;20102;-54
2024/01/05 04:34:11;;;;;;;;;;;19.00;42.00;;;;;;5094621;28;19924;-53
2024/01/05 04:36:39;;;;;;;;;;;19.00;42.00;;;;;;5083037;28;20308;-53
2024/01/05 04:39:06;;;;;;;;;;;19.00;42.00;;;;;;5076600;28;19920;-54
2024/01/05 04:41:34;;;;;;;;;;;19.00;42.00;;;;;;5072736;28;19981;-54
2024/01/05 04:44:00;;;;;;;;;;;19.00;42.00;;;;;;5084945;28;19920;-52
2024/01/05 04:46:27;;;;;;;;;;;19.00;42.00;;;;;;5072043;28;19931;-53
2024/01/05 04:48:54;;;;;;;;;;;19.00;42.00;;;;;;5084212;28;19920;-51
2024/01/05 04:51:21;;;;;;;;;;;19.00;42.00;;;;;;5094089;28;19924;-55
2024/01/05 04:53:49;;;;;;;;;;;19.00;42.00;;;;;;5075172;28;19920;-53
2024/01/05 04:56:16;;;;;;;;;;;19.00;42.00;;;;;;5079709;28;19924;-51
2024/01/05 04:58:44;;;;;;;;;;;19.00;42.00;;;;;;5093337;28;19981;-51
2024/01/05 05:01:11;;;;;;;;;;;19.00;42.00;;;;;;5077692;28;19946;-54
2024/01/05 05:03:37;;;;;;;;;;;19.00;42.00;;;;;;5076674;28;19963;-53
2024/01/05 05:06:04;;;;;;;;;;;19.00;42.00;;;;;;5073223;28;19920;-52
2024/01/05 05:08:31;;;;;;;;;;;19.00;42.00;;;;;;5096906;28;19924;-56
2024/01/05 05:10:58;;;;;;;;;;;19.00;42.00;;;;;;5083249;28;19924;-53
2024/01/05 05:13:24;;;;;;;;;;;19.00;42.00;;;;;;5089260;28;19924;-54
2024/01/05 05:15:52;;;;;;;;;;;19.00;42.00;;;;;;5092890;28;19927;-52
2024/01/05 05:18:19;;;;;;;;;;;19.00;42.00;;;;;;5075769;28;19920;-54
2024/01/05 05:20:46;;;;;;;;;;;19.00;41.90;;;;;;5083763;28;19920;-55
2024/01/05 05:23:13;;;;;;;;;;;19.00;42.00;;;;;;5071719;28;20279;-55
2024/01/05 05:25:39;;;;;;;;;;;19.00;42.00;;;;;;5074637;28;20402;-54
2024/01/05 05:28:06;;;;;;;;;;;19.00;42.00;;;;;;5083678;28;19965;-55
2024/01/05 05:30:33;;;;;;;;;;;19.00;42.00;;;;;;5078503;28;19958;-56
2024/01/05 05:33:01;;;;;;;;;;;19.00;42.00;;;;;;5075645;28;19997;-52
2024/01/05 05:35:28;;;;;;;;;;;19.00;42.00;;;;;;5074413;28;19927;-54
2024/01/05 05:37:55;;;;;;;;;;;19.00;42.00;;;;;;5075485;28;19920;-54
2024/01/05 05:40:22;;;;;;;;;;;19.00;42.00;;;;;;5093442;28;19990;-52
2024/01/05 05:42:48;;;;;;;;;;;19.00;41.90;;;;;;5086075;28;19920;-52
2024/01/05 05:45:18;;;;;;;;;;;19.00;41.90;;;;;;5068750;28;19978;-56
2024/01/05 05:47:45;;;;;;;;;;;19.00;41.90;;;;;;5092944;28;19924;-53
2024/01/05 05:50:13;;;;;;;;;;;19.00;41.90;;;;;;5081491;28;19931;-54
2024/01/05 05:52:40;;;;;;;;;;;19.00;41.90;;;;;;5081137;28;19920;-52
2024/01/05 05:55:07;;;;;;;;;;;19.00;41.90;;;;;;5075005;28;19919;-54
2024/01/05 05:57:33;;;;;;;;;;;19.00;41.90;;;;;;5074591;28;19928;-55
2024/01/05 06:00:00;;;;;;;;;;;19.00;41.90;;;;;;5076240;28;20004;-54
2024/01/05 06:02:27;;;;;;;;;;;19.00;41.90;;;;;;5074598;28;19924;-52
2024/01/05 06:04:54;;;;;;;;;;;19.00;41.90;;;;;;5083550;28;19920;-52
2024/01/05 06:07:24;;;;;;;;;;;19.00;41.90;;;;;;5083037;28;19924;-54
2024/01/05 06:09:51;;;;;;;;;;;19.00;41.80;;;;;;5092843;28;19924;-52
2024/01/05 06:12:17;;;;;;;;;;;19.00;41.90;;;;;;5074711;28;19953;-54
2024/01/05 06:14:45;;;;;;;;;;;19.00;41.80;;;;;;5073637;28;19928;-55
2024/01/05 06:17:11;;;;;;;;;;;19.00;41.80;;;;;;5088858;28;19924;-51
2024/01/05 06:19:38;;;;;;;;;;;19.00;42.40;;;;;;5071435;28;19976;-55
2024/01/05 06:22:05;;;;;;;;;;;19.00;41.80;;;;;;5073792;28;19924;-50
2024/01/05 06:24:33;;;;;;;;;;;19.00;41.80;;;;;;5079134;28;20270;-57
2024/01/05 06:27:00;;;;;;;;;;;19.00;41.80;;;;;;5091376;28;19970;-52
2024/01/05 06:29:26;;;;;;;;;;;19.00;41.80;;;;;;5075340;28;19923;-55
2024/01/05 06:31:53;;;;;;;;;;;19.00;41.80;;;;;;5075665;28;19974;-55
2024/01/05 06:34:20;;;;;;;;;;;19.00;41.80;;;;;;5093972;28;20018;-55
2024/01/05 06:36:47;;;;;;;;;;;19.00;42.30;;;;;;5078091;28;20307;-52
2024/01/05 06:39:13;;;;;;;;;;;19.00;41.80;;;;;;5092179;28;20365;-51
2024/01/05 06:41:41;;;;;;;;;;;19.00;41.80;;;;;;5073442;28;19927;-54
2024/01/05 06:44:08;;;;;;;;;;;19.00;41.80;;;;;;5082586;28;19946;-50
2024/01/05 06:46:35;;;;;;;;;;;19.00;41.80;;;;;;5064444;28;19946;-49
2024/01/05 06:49:03;;;;;;;;;;;19.00;41.80;;;;;;5090358;28;19927;-52
2024/01/05 06:51:30;;;;;;;;;;;19.00;41.80;;;;;;5090561;28;19949;-54
2024/01/05 06:53:57;;;;;;;;;;;19.00;41.80;;;;;;5073910;28;19930;-53
2024/01/05 06:56:27;;;;;;;;;;;19.00;41.80;;;;;;5075061;28;19920;-55
2024/01/05 06:58:55;;;;;;;;;;;19.00;41.80;;;;;;5073995;28;19920;-55
2024/01/05 07:01:22;;;;;;;;;;;19.00;41.80;;;;;;5079357;28;19924;-54
2024/01/05 07:03:49;;;;;;;;;;;19.00;41.80;;;;;;5073003;28;19928;-55
2024/01/05 07:06:16;;;;;;;;;;;19.00;41.80;;;;;;5089768;28;20182;-53
2024/01/05 07:08:42;;;;;;;;;;;19.00;41.80;;;;;;5088193;28;19920;-55
2024/01/05 07:11:09;;;;;;;;;;;19.00;41.80;;;;;;5092539;28;19949;-54
2024/01/05 07:13:36;;;;;;;;;;;19.00;41.80;;;;;;5094532;28;19928;-53
2024/01/05 07:16:05;;;;;;;;;;;19.00;41.80;;;;;;5081329;28;19924;-54
2024/01/05 07:18:31;;;;;;;;;;;19.00;41.80;;;;;;5087596;28;19928;-55
2024/01/05 07:20:58;;;;;;;;;;;19.00;41.80;;;;;;5071940;28;19969;-53
2024/01/05 07:23:25;;;;;;;;;;;19.00;41.90;;;;;;5068311;28;19920;-56
2024/01/05 07:25:51;;;;;;;;;;;19.00;41.90;;;;;;5072147;28;19977;-56
2024/01/05 07:28:18;;;;;;;;;;;19.00;41.90;;;;;;5072443;28;19920;-52
2024/01/05 07:30:45;;;;;;;;;;;19.00;41.90;;;;;;5069422;28;19924;-53
2024/01/05 07:33:13;;;;;;;;;;;19.00;41.90;;;;;;5070971;28;19969;-51
2024/01/05 07:35:40;;;;;;;;;;;19.00;41.90;;;;;;5085974;28;19920;-57
2024/01/05 07:38:06;;;;;;;;;;;19.00;41.90;;;;;;5066931;28;19920;-55
2024/01/05 07:40:33;;;;;;;;;;;19.00;41.90;;;;;;5070102;28;19927;-54
2024/01/05 07:43:00;;;;;;;;;;;19.00;41.90;;;;;;5071009;28;19920;-50
2024/01/05 07:45:26;;;;;;;;;;;19.00;41.90;;;;;;5086946;28;19920;-54
2024/01/05 07:47:55;;;;;;;;;;;19.00;41.90;;;;;;5071765;28;20135;-56
2024/01/05 07:50:23;;;;;;;;;;;19.00;41.90;;;;;;5084126;28;19931;-51
2024/01/05 07:52:49;;;;;;;;;;;19.00;41.80;;;;;;5072991;28;19920;-54
2024/01/05 07:55:16;;;;;;;;;;;19.00;41.90;;;;;;5071862;28;19931;-54
2024/01/05 07:57:43;;;;;;;;;;;19.00;41.80;;;;;;5068536;28;19974;-53
2024/01/05 08:00:11;;;;;;;;;;;19.00;41.80;;;;;;5066866;28;19920;-51
2024/01/05 08:02:37;;;;;;;;;;;19.00;41.80;;;;;;5084292;28;19920;-53
2024/01/05 08:05:04;;;;;;;;;;;19.00;41.80;;;;;;5092354;28;20000;-55
2024/01/05 08:07:32;;;;;;;;;;;19.00;41.80;;;;;;5063842;28;19920;-57
2024/01/05 08:10:00;;;;;;;;;;;19.00;41.80;;;;;;5083256;28;19966;-53
2024/01/05 08:12:26;;;;;;;;;;;19.00;41.80;;;;;;5088734;28;19994;-50
2024/01/05 08:14:53;;;;;;;;;;;19.00;41.80;;;;;;5076483;28;19946;-56
2024/01/05 08:17:20;;;;;;;;;;;19.00;41.70;;;;;;5073643;28;19942;-56
2024/01/05 08:19:47;;;;;;;;;;;19.00;41.80;;;;;;5069455;28;19920;-53
2024/01/05 08:22:14;;;;;;;;;;;19.00;41.70;;;;;;5091712;28;20019;-55
2024/01/05 08:24:42;;;;;;;;;;;19.00;41.70;;;;;;5073320;28;19920;-52
2024/01/05 08:27:09;;;;;;;;;;;19.00;41.70;;;;;;5090306;28;19973;-55
2024/01/05 08:29:35;;;;;;;;;;;19.00;42.30;;;;;;5077134;28;19920;-55
2024/01/05 08:32:03;;;;;;;;;;;19.00;41.70;;;;;;5071602;28;19935;-55
2024/01/05 08:34:30;;;;;;;;;;;19.00;41.80;;;;;;5076804;28;20004;-52
2024/01/05 08:36:57;;;;;;;;;;;19.00;41.80;;;;;;5092753;28;19924;-55
2024/01/05 08:39:23;;;;;;;;;;;19.00;41.80;;;;;;5080591;28;19949;-57
2024/01/05 08:41:52;;;;;;;;;;;19.00;41.80;;;;;;5080530;28;19940;-53
2024/01/05 08:44:20;;;;;;;;;;;19.00;41.80;;;;;;5092678;28;19988;-53
2024/01/05 08:46:47;;;;;;;;;;;19.00;41.80;;;;;;5080968;28;20011;-53
2024/01/05 08:49:14;;;;;;;;;;;19.00;41.90;;;;;;5089665;28;19924;-55
2024/01/05 08:51:42;;;;;;;;;;;19.00;41.90;;;;;;5085521;28;19927;-52
2024/01/05 08:54:09;;;;;;;;;;;19.00;41.90;;;;;;5069040;28;19928;-54
2024/01/05 08:56:36;;;;;;;;;;;19.00;41.90;;;;;;5079477;28;20272;-54
2024/01/05 08:59:04;;;;;;;;;;;19.00;41.90;;;;;;5080454;28;19981;-51
2024/01/05 09:01:32;;;;;;;;;;;19.00;42.00;;;;;;5080548;28;19920;-56
2024/01/05 09:03:58;;;;;;;;;;;19.00;42.10;;;;;;5080584;28;19921;-53
2024/01/05 09:06:25;;;;;;;;;;;19.00;42.10;;;;;;5091594;28;19919;-54
2024/01/05 09:08:52;;;;;;;;;;;19.00;42.10;;;;;;5092660;28;19936;-55
2024/01/05 09:11:18;;;;;;;;;;;19.00;42.10;;;;;;5079530;28;19920;-54
2024/01/05 09:13:45;;;;;;;;;;;19.00;42.10;;;;;;5080806;28;19932;-54
2024/01/05 09:16:13;;;;;;;;;;;19.00;42.10;;;;;;5081122;28;19927;-53
2024/01/05 09:18:40;;;;;;;;;;;19.00;42.20;;;;;;5079879;28;20273;-51
2024/01/05 09:21:07;;;;;;;;;;;19.00;42.20;;;;;;5070820;28;19920;-57
2024/01/05 09:23:34;;;;;;;;;;;19.00;42.20;;;;;;5081607;28;19967;-55
2024/01/05 09:26:01;;;;;;;;;;;19.00;42.20;;;;;;5074762;28;20040;-53
2024/01/05 09:28:27;;;;;;;;;;;19.00;42.20;;;;;;5080870;28;20422;-52
2024/01/05 09:30:54;;;;;;;;;;;19.00;42.30;;;;;;5082095;28;19920;-56
2024/01/05 09:33:24;;;;;;;;;;;19.00;42.30;;;;;;5079464;28;19927;-53
2024/01/05 09:35:50;;;;;;;;;;;19.00;42.30;;;;;;5061253;28;19927;-55
2024/01/05 09:38:17;;;;;;;;;;;19.00;42.30;;;;;;5077981;28;19942;-55
2024/01/05 09:40:44;;;;;;;;;;;19.00;42.30;;;;;;5092210;28;19924;-54
2024/01/05 09:43:11;;;;;;;;;;;19.00;42.30;;;;;;5092206;28;19920;-53
2024/01/05 09:45:38;;;;;;;;;;;19.00;42.30;;;;;;5081871;28;19992;-53
2024/01/05 09:48:05;;;;;;;;;;;19.00;42.40;;;;;;5082796;28;20023;-54
2024/01/05 09:50:33;;;;;;;;;;;19.00;42.40;;;;;;5078202;28;19920;-54
2024/01/05 09:53:00;;;;;;;;;;;19.00;42.30;;;;;;5076139;28;19963;-55
2024/01/05 09:55:27;;;;;;;;;;;19.00;42.30;;;;;;5076606;28;19923;-52
2024/01/05 09:57:53;;;;;;;;;;;19.00;42.30;;;;;;5080142;28;19924;-58
2024/01/05 10:00:20;;;;;;;;;;;19.00;42.30;;;;;;5084289;28;19928;-52
2024/01/05 10:02:48;;;;;;;;;;;19.00;42.30;;;;;;5086192;28;19920;-53
2024/01/05 10:05:14;;;;;;;;;;;19.00;42.30;;;;;;5091350;28;19928;-55
2024/01/05 10:07:43;;;;;;;;;;;19.00;42.30;;;;;;5091217;28;19932;-54
2024/01/05 10:10:12;;;;;;;;;;;19.00;42.30;;;;;;5077116;28;19922;-55
2024/01/05 10:12:39;;;;;;;;;;;19.00;42.40;;;;;;5055059;28;19920;-58
2024/01/05 10:15:06;;;;;;;;;;;19.00;42.30;;;;;;5075443;28;20007;-56
2024/01/05 10:17:33;;;;;;;;;;;19.00;42.30;;;;;;5090564;28;20210;-56
2024/01/05 10:20:11;;;;;;;;;;;19.00;42.40;;;;;;5082068;28;19924;-56
2024/01/05 10:22:38;;;;;;;;;;;19.10;42.50;;;;;;5090532;28;19924;-51
2024/01/05 10:25:16;;;;;;;;;;;19.00;42.40;;;;;;5074472;28;19924;-55
2024/01/05 10:27:43;;;;;;;;;;;19.00;42.40;;;;;;5071589;28;19991;-55
2024/01/05 10:30:11;;;;;;;;;;;19.00;42.40;;;;;;5074944;28;19920;-56
2024/01/05 10:32:38;;;;;;;;;;;19.10;42.50;;;;;;5079329;28;19921;-54
2024/01/05 10:35:05;;;;;;;;;;;19.00;42.50;;;;;;5076468;28;19920;-57
2024/01/05 10:37:32;;;;;;;;;;;19.10;42.50;;;;;;5060450;28;19920;-56
2024/01/05 10:40:03;;;;;;;;;;;19.10;42.50;;;;;;5088736;28;19985;-57
2024/01/05 10:42:33;;;;;;;;;;;19.10;42.50;;;;;;5081213;28;19927;-56
2024/01/05 10:45:01;;;;;;;;;;;19.10;42.50;;;;;;5077887;28;19924;-54
2024/01/05 10:47:28;;;;;;;;;;;19.10;42.60;;;;;;5066830;28;19937;-56
2024/01/05 10:49:55;;;;;;;;;;;19.10;42.60;;;;;;5070148;28;19950;-58
2024/01/05 10:52:23;;;;;;;;;;;19.10;42.60;;;;;;5080422;28;19924;-55
2024/01/05 10:54:50;;;;;;;;;;;19.10;42.70;;;;;;5087166;28;19920;-56
2024/01/05 10:57:18;;;;;;;;;;;19.10;42.70;;;;;;5070491;28;20010;-57
2024/01/05 10:59:46;;;;;;;;;;;19.10;42.70;;;;;;5071638;28;19969;-54
2024/01/05 11:02:19;;;;;;;;;;;19.10;42.70;;;;;;5072559;28;20119;-55
2024/01/05 11:04:46;;;;;;;;;;;19.10;42.80;;;;;;5067753;28;20027;-54
2024/01/05 11:07:12;;;;;;;;;;;19.10;42.80;;;;;;5089787;28;19920;-57
2024/01/05 11:09:40;;;;;;;;;;;19.10;42.80;;;;;;5090986;28;20033;-57
2024/01/05 11:12:10;;;;;;;;;;;19.10;42.80;;;;;;5087258;28;19978;-53
2024/01/05 11:14:50;;;;;;;;;;;19.10;42.80;;;;;;5057080;28;20295;-54
2024/01/05 11:17:28;;;;;;;;;;;19.10;42.80;;;;;;5074288;28;19942;-54
2024/01/05 11:20:08;;;;;;;;;;;19.10;42.80;;;;;;5077666;28;20030;-54
2024/01/05 11:22:35;;;;;;;;;;;19.10;42.80;;;;;;5067811;28;19928;-56
2024/01/05 11:25:02;;;;;;;;;;;19.10;42.90;;;;;;5071272;28;19920;-56
2024/01/05 11:27:30;;;;;;;;;;;19.10;42.90;;;;;;5088888;28;19942;-55
2024/01/05 11:29:58;;;;;;;;;;;19.10;42.90;;;;;;5075385;28;20011;-55
2024/01/05 11:32:42;;;;;;;;;;;19.10;42.90;;;;;;5072344;28;19924;-57
2024/01/05 11:35:41;;;;;;;;;;;19.10;42.90;;;;;;5065484;28;20422;-54
2024/01/05 11:38:33;;;;;;;;;;;19.10;43.00;;;;;;5082501;28;20205;-53
2024/01/05 11:41:00;;;;;;;;;;;19.10;42.90;;;;;;5075113;28;19948;-56
2024/01/05 11:43:35;;;;;;;;;;;19.10;43.00;;;;;;5088485;28;19927;-56
2024/01/05 11:46:03;;;;;;;;;;;19.10;43.00;;;;;;5082987;28;19931;-54
2024/01/05 11:48:46;;;;;;;;;;;19.10;43.00;;;;;;5065635;28;19969;-56
2024/01/05 11:51:13;;;;;;;;;;;19.10;43.00;;;;;;5089639;28;19921;-56
2024/01/05 11:53:40;;;;;;;;;;;19.10;43.00;;;;;;5072888;28;19926;-56
2024/01/05 11:56:07;;;;;;;;;;;19.10;43.00;;;;;;5081686;28;19932;-56
2024/01/05 11:58:35;;;;;;;;;;;19.10;43.00;;;;;;5084429;28;19927;-55
2024/01/05 12:01:04;;;;;;;;;;;19.10;42.90;;;;;;5070357;28;20015;-54
2024/01/05 12:03:30;;;;;;;;;;;19.10;42.90;;;;;;5085720;28;19920;-54
2024/01/05 12:05:58;;;;;;;;;;;19.10;42.90;;;;;;5085044;28;19920;-54
2024/01/05 12:08:24;;;;;;;;;;;19.10;42.90;;;;;;5071553;28;19931;-57
2024/01/05 12:10:52;;;;;;;;;;;19.10;42.90;;;;;;5062216;28;19928;-56
2024/01/05 12:13:22;;;;;;;;;;;19.10;43.50;;;;;;5070635;28;20320;-53
2024/01/05 12:15:52;;;;;;;;;;;19.10;42.90;;;;;;5081913;28;19946;-53
2024/01/05 12:18:25;;;;;;;;;;;19.10;42.90;;;;;;5087003;28;19930;-55
2024/01/05 12:20:53;;;;;;;;;;;19.10;42.80;;;;;;5076224;28;19932;-55
2024/01/05 12:23:20;;;;;;;;;;;19.10;42.80;;;;;;5083696;28;19924;-54
2024/01/05 12:25:56;;;;;;;;;;;19.10;42.80;;;;;;5069611;28;19927;-56
2024/01/05 12:28:23;;;;;;;;;;;19.10;42.80;;;;;;5067441;28;19920;-54
2024/01/05 12:30:50;;;;;;;;;;;19.10;42.80;;;;;;5085012;28;19936;-55
2024/01/05 12:33:17;;;;;;;;;;;19.10;42.80;;;;;;5068570;28;20380;-53
2024/01/05 12:35:46;;;;;;;;;;;19.10;42.80;;;;;;5065696;28;19924;-56
2024/01/05 12:38:13;;;;;;;;;;;19.10;42.80;;;;;;5067584;28;19935;-52
2024/01/05 12:40:41;;;;;;;;;;;19.10;42.90;;;;;;5067950;28;19925;-55
2024/01/05 12:43:11;;;;;;;;;;;19.10;42.90;;;;;;5085886;28;20413;-54
2024/01/05 12:45:38;;;;;;;;;;;19.10;42.90;;;;;;5070264;28;19948;-55
2024/01/05 12:48:10;;;;;;;;;;;19.10;42.90;;;;;;5071488;28;19932;-54
2024/01/05 12:50:36;;;;;;;;;;;19.10;43.00;;;;;;5064958;28;19925;-55
2024/01/05 12:53:06;;;;;;;;;;;19.10;43.00;;;;;;5086161;28;19920;-53
2024/01/05 12:55:35;;;;;;;;;;;19.10;43.00;;;;;;5066826;28;19920;-57
2024/01/05 12:58:02;;;;;;;;;;;19.10;43.00;;;;;;5070446;28;19920;-54
2024/01/05 13:00:29;;;;;;;;;;;19.10;43.10;;;;;;5074754;28;20090;-55
2024/01/05 13:02:55;;;;;;;;;;;19.10;43.00;;;;;;5095650;28;19973;-53
2024/01/05 13:05:26;;;;;;;;;;;19.10;43.70;;;;;;5075373;28;19920;-54
2024/01/05 13:07:53;;;;;;;;;;;19.10;43.10;;;;;;5078651;28;19924;-57
2024/01/05 13:10:21;;;;;;;;;;;19.10;43.20;;;;;;5094082;28;19947;-55
2024/01/05 13:12:48;;;;;;;;;;;19.10;43.10;;;;;;5074082;28;19920;-51
2024/01/05 13:15:15;;;;;;;;;;;19.10;43.10;;;;;;5066339;28;20157;-55
2024/01/05 13:17:43;;;;;;;;;;;19.10;43.10;;;;;;5079114;28;19932;-51
2024/01/05 13:20:10;;;;;;;;;;;19.20;43.20;;;;;;5079693;28;19924;-49
2024/01/05 13:22:37;;;;;;;;;;;19.10;42.90;;;;;;5091271;28;20450;-47
2024/01/05 13:25:04;;;;;;;;;;;19.10;42.40;;;;;;5075161;28;19965;-56
2024/01/05 13:27:32;;;;;;;;;;;19.10;42.00;;;;;;5089915;28;19967;-47
2024/01/05 13:29:59;;;;;;;;;;;19.10;41.80;;;;;;5071982;28;19920;-53
2024/01/05 13:32:26;;;;;;;;;;;19.10;41.50;;;;;;5089246;28;19985;-47
2024/01/05 13:34:53;;;;;;;;;;;19.10;41.20;;;;;;5077388;28;20377;-49
2024/01/05 13:37:20;;;;;;;;;;;19.10;40.80;;;;;;5077463;28;19924;-56
2024/01/05 13:39:47;;;;;;;;;;;19.10;40.60;;;;;;5089930;28;20024;-52
2024/01/05 13:42:13;;;;;;;;;;;19.00;40.30;;;;;;5070915;28;19921;-52
2024/01/05 13:44:41;;;;;;;;;;;19.00;40.10;;;;;;5079066;28;19920;-53
2024/01/05 13:47:08;;;;;;;;;;;19.00;40.00;;;;;;5076487;28;19931;-52
2024/01/05 13:49:35;;;;;;;;;;;19.00;40.00;;;;;;5075258;28;19957;-54
2024/01/05 13:52:03;;;;;;;;;;;19.00;40.20;;;;;;5078002;28;19924;-51
2024/01/05 13:54:31;;;;;;;;;;;19.00;39.60;;;;;;5079214;28;20055;-52
2024/01/05 13:56:58;;;;;;;;;;;19.00;39.40;;;;;;5085315;28;20015;-49
2024/01/05 13:59:25;;;;;;;;;;;18.90;39.00;;;;;;5090117;28;19921;-52
2024/01/05 14:01:53;;;;;;;;;;;18.90;38.90;;;;;;5071976;28;19967;-55
2024/01/05 14:04:20;;;;;;;;;;;18.90;38.90;;;;;;5067700;28;19943;-54
2024/01/05 14:06:47;;;;;;;;;;;18.90;38.70;;;;;;5072106;28;19994;-54
2024/01/05 14:09:14;;;;;;;;;;;18.80;38.70;;;;;;5073189;28;19926;-54
2024/01/05 14:11:41;;;;;;;;;;;18.80;38.40;;;;;;5092281;28;19950;-57
2024/01/05 14:14:07;;;;;;;;;;;18.80;38.50;;;;;;5074540;28;19920;-56
2024/01/05 14:16:34;;;;;;;;;;;18.80;38.40;;;;;;5087762;28;19973;-55
2024/01/05 14:19:02;;;;;;;;;;;18.70;38.20;;;;;;5073752;28;19982;-55